sensor_id;sensor_type;location;lat;lon;timestamp;P1;durP1;ratioP1;P2;durP2;ratioP2
29940;SDS011;16801;53.562;10.038;2022-11-18T00:00:09;8.53;;;6.13;;
29940;SDS011;16801;53.562;10.038;2022-11-18T00:03:32;7.73;;;5.67;;
29940;SDS011;16801;53.562;10.038;2022-11-18T00:06:53;7.37;;;5.63;;
29940;SDS011;16801;53.562;10.038;2022-11-18T00:10:14;8.83;;;4.97;;
29940;SDS011;16801;53.562;10.038;2022-11-18T00:13:36;6.57;;;4.63;;
29940;SDS011;16801;53.562;10.038;2022-11-18T00:17:16;6.17;;;5.07;;
29940;SDS011;16801;53.562;10.038;2022-11-18T00:20:37;6.70;;;5.40;;
29940;SDS011;16801;53.562;10.038;2022-11-18T00:23:59;6.03;;;5.00;;
29940;SDS011;16801;53.562;10.038;2022-11-18T00:27:21;8.93;;;5.73;;
29940;SDS011;16801;53.562;10.038;2022-11-18T00:30:42;9.10;;;6.43;;
29940;SDS011;16801;53.562;10.038;2022-11-18T00:34:04;8.40;;;6.13;;
29940;SDS011;16801;53.562;10.038;2022-11-18T00:37:26;6.27;;;5.17;;
29940;SDS011;16801;53.562;10.038;2022-11-18T00:40:49;5.47;;;4.37;;
29940;SDS011;16801;53.562;10.038;2022-11-18T00:44:20;6.43;;;5.80;;
29940;SDS011;16801;53.562;10.038;2022-11-18T00:47:40;6.50;;;5.93;;
29940;SDS011;16801;53.562;10.038;2022-11-18T00:51:09;6.27;;;4.90;;
29940;SDS011;16801;53.562;10.038;2022-11-18T00:54:35;6.43;;;5.83;;
29940;SDS011;16801;53.562;10.038;2022-11-18T00:57:57;6.53;;;5.97;;
29940;SDS011;16801;53.562;10.038;2022-11-18T01:01:18;8.37;;;6.27;;
29940;SDS011;16801;53.562;10.038;2022-11-18T01:04:45;9.10;;;5.43;;
29940;SDS011;16801;53.562;10.038;2022-11-18T01:08:11;8.97;;;6.53;;
29940;SDS011;16801;53.562;10.038;2022-11-18T01:11:33;9.57;;;5.37;;
29940;SDS011;16801;53.562;10.038;2022-11-18T01:15:11;9.30;;;5.73;;
29940;SDS011;16801;53.562;10.038;2022-11-18T01:18:32;10.13;;;6.67;;
29940;SDS011;16801;53.562;10.038;2022-11-18T01:21:54;10.17;;;6.37;;
29940;SDS011;16801;53.562;10.038;2022-11-18T01:25:23;8.70;;;5.40;;
29940;SDS011;16801;53.562;10.038;2022-11-18T01:28:45;6.77;;;4.93;;
29940;SDS011;16801;53.562;10.038;2022-11-18T01:32:06;6.57;;;5.67;;
29940;SDS011;16801;53.562;10.038;2022-11-18T01:35:27;7.30;;;5.33;;
29940;SDS011;16801;53.562;10.038;2022-11-18T01:38:48;8.03;;;5.47;;
29940;SDS011;16801;53.562;10.038;2022-11-18T01:42:14;7.10;;;6.00;;
29940;SDS011;16801;53.562;10.038;2022-11-18T01:45:37;8.73;;;6.40;;
29940;SDS011;16801;53.562;10.038;2022-11-18T01:49:01;7.90;;;5.63;;
29940;SDS011;16801;53.562;10.038;2022-11-18T01:52:28;7.53;;;5.73;;
29940;SDS011;16801;53.562;10.038;2022-11-18T01:55:50;10.47;;;6.23;;
29940;SDS011;16801;53.562;10.038;2022-11-18T01:59:16;8.30;;;6.30;;
29940;SDS011;16801;53.562;10.038;2022-11-18T02:02:40;9.17;;;6.10;;
29940;SDS011;16801;53.562;10.038;2022-11-18T02:06:02;8.07;;;6.60;;
29940;SDS011;16801;53.562;10.038;2022-11-18T02:09:26;8.30;;;6.23;;
29940;SDS011;16801;53.562;10.038;2022-11-18T02:12:47;9.80;;;6.67;;
29940;SDS011;16801;53.562;10.038;2022-11-18T02:16:12;9.07;;;6.40;;
29940;SDS011;16801;53.562;10.038;2022-11-18T02:19:46;8.80;;;7.77;;
29940;SDS011;16801;53.562;10.038;2022-11-18T02:23:31;9.07;;;6.30;;
29940;SDS011;16801;53.562;10.038;2022-11-18T02:31:07;12.13;;;7.00;;
29940;SDS011;16801;53.562;10.038;2022-11-18T02:34:36;8.97;;;6.47;;
29940;SDS011;16801;53.562;10.038;2022-11-18T02:38:02;9.73;;;7.97;;
29940;SDS011;16801;53.562;10.038;2022-11-18T02:41:26;9.93;;;6.57;;
29940;SDS011;16801;53.562;10.038;2022-11-18T02:44:51;14.23;;;8.53;;
29940;SDS011;16801;53.562;10.038;2022-11-18T02:48:19;12.43;;;7.23;;
29940;SDS011;16801;53.562;10.038;2022-11-18T02:51:44;8.87;;;6.23;;
29940;SDS011;16801;53.562;10.038;2022-11-18T02:55:08;8.60;;;6.90;;
29940;SDS011;16801;53.562;10.038;2022-11-18T02:58:31;6.83;;;5.90;;
29940;SDS011;16801;53.562;10.038;2022-11-18T03:01:52;11.17;;;8.07;;
29940;SDS011;16801;53.562;10.038;2022-11-18T03:05:17;6.50;;;4.87;;
29940;SDS011;16801;53.562;10.038;2022-11-18T03:08:45;7.40;;;6.40;;
29940;SDS011;16801;53.562;10.038;2022-11-18T03:12:13;9.20;;;6.50;;
29940;SDS011;16801;53.562;10.038;2022-11-18T03:15:39;10.30;;;7.30;;
29940;SDS011;16801;53.562;10.038;2022-11-18T03:19:10;11.10;;;7.50;;
29940;SDS011;16801;53.562;10.038;2022-11-18T03:22:41;10.67;;;7.80;;
29940;SDS011;16801;53.562;10.038;2022-11-18T03:26:08;7.73;;;6.00;;
29940;SDS011;16801;53.562;10.038;2022-11-18T03:29:34;12.00;;;7.80;;
29940;SDS011;16801;53.562;10.038;2022-11-18T03:33:00;6.53;;;5.40;;
29940;SDS011;16801;53.562;10.038;2022-11-18T03:36:26;10.70;;;6.43;;
29940;SDS011;16801;53.562;10.038;2022-11-18T03:39:52;8.67;;;6.70;;
29940;SDS011;16801;53.562;10.038;2022-11-18T03:43:19;7.83;;;6.33;;
29940;SDS011;16801;53.562;10.038;2022-11-18T03:46:43;9.10;;;6.93;;
29940;SDS011;16801;53.562;10.038;2022-11-18T03:50:07;10.60;;;7.50;;
29940;SDS011;16801;53.562;10.038;2022-11-18T03:53:34;14.83;;;8.10;;
29940;SDS011;16801;53.562;10.038;2022-11-18T03:57:01;11.43;;;8.67;;
29940;SDS011;16801;53.562;10.038;2022-11-18T04:00:28;10.00;;;7.27;;
29940;SDS011;16801;53.562;10.038;2022-11-18T04:03:53;11.03;;;7.40;;
29940;SDS011;16801;53.562;10.038;2022-11-18T04:07:17;10.17;;;7.30;;
29940;SDS011;16801;53.562;10.038;2022-11-18T04:10:45;8.37;;;7.37;;
29940;SDS011;16801;53.562;10.038;2022-11-18T04:14:11;11.43;;;7.50;;
29940;SDS011;16801;53.562;10.038;2022-11-18T04:17:34;10.53;;;6.57;;
29940;SDS011;16801;53.562;10.038;2022-11-18T04:20:55;9.13;;;7.13;;
29940;SDS011;16801;53.562;10.038;2022-11-18T04:24:16;8.03;;;6.27;;
29940;SDS011;16801;53.562;10.038;2022-11-18T04:27:37;10.27;;;6.27;;
29940;SDS011;16801;53.562;10.038;2022-11-18T04:30:59;9.10;;;6.03;;
29940;SDS011;16801;53.562;10.038;2022-11-18T04:34:20;7.27;;;6.07;;
29940;SDS011;16801;53.562;10.038;2022-11-18T04:37:41;7.90;;;6.10;;
29940;SDS011;16801;53.562;10.038;2022-11-18T04:41:02;9.33;;;6.33;;
29940;SDS011;16801;53.562;10.038;2022-11-18T04:44:24;7.93;;;6.03;;
29940;SDS011;16801;53.562;10.038;2022-11-18T04:47:47;8.57;;;6.00;;
29940;SDS011;16801;53.562;10.038;2022-11-18T04:51:08;9.27;;;7.10;;
29940;SDS011;16801;53.562;10.038;2022-11-18T04:54:29;10.03;;;7.20;;
29940;SDS011;16801;53.562;10.038;2022-11-18T04:57:51;10.73;;;7.50;;
29940;SDS011;16801;53.562;10.038;2022-11-18T05:01:11;13.90;;;10.57;;
29940;SDS011;16801;53.562;10.038;2022-11-18T05:04:34;8.83;;;7.00;;
29940;SDS011;16801;53.562;10.038;2022-11-18T05:07:55;8.93;;;6.10;;
29940;SDS011;16801;53.562;10.038;2022-11-18T05:11:16;6.60;;;5.57;;
29940;SDS011;16801;53.562;10.038;2022-11-18T05:14:54;9.27;;;6.77;;
29940;SDS011;16801;53.562;10.038;2022-11-18T05:18:15;8.07;;;7.27;;
29940;SDS011;16801;53.562;10.038;2022-11-18T05:21:38;9.37;;;6.90;;
29940;SDS011;16801;53.562;10.038;2022-11-18T05:24:59;10.53;;;7.50;;
29940;SDS011;16801;53.562;10.038;2022-11-18T05:28:20;7.23;;;6.47;;
29940;SDS011;16801;53.562;10.038;2022-11-18T05:31:40;9.20;;;6.27;;
29940;SDS011;16801;53.562;10.038;2022-11-18T05:35:01;9.50;;;6.93;;
29940;SDS011;16801;53.562;10.038;2022-11-18T05:38:24;8.30;;;5.67;;
29940;SDS011;16801;53.562;10.038;2022-11-18T05:41:45;8.37;;;6.67;;
29940;SDS011;16801;53.562;10.038;2022-11-18T05:45:23;9.20;;;7.17;;
29940;SDS011;16801;53.562;10.038;2022-11-18T05:48:44;9.00;;;6.87;;
29940;SDS011;16801;53.562;10.038;2022-11-18T05:52:05;9.00;;;7.10;;
29940;SDS011;16801;53.562;10.038;2022-11-18T05:55:29;11.10;;;8.90;;
29940;SDS011;16801;53.562;10.038;2022-11-18T05:58:54;7.57;;;6.63;;
29940;SDS011;16801;53.562;10.038;2022-11-18T06:02:17;7.80;;;6.70;;
29940;SDS011;16801;53.562;10.038;2022-11-18T06:05:41;8.17;;;6.63;;
29940;SDS011;16801;53.562;10.038;2022-11-18T06:09:02;13.03;;;7.80;;
29940;SDS011;16801;53.562;10.038;2022-11-18T06:12:27;8.23;;;6.97;;
29940;SDS011;16801;53.562;10.038;2022-11-18T06:15:51;9.17;;;7.10;;
29940;SDS011;16801;53.562;10.038;2022-11-18T06:19:12;10.37;;;7.37;;
29940;SDS011;16801;53.562;10.038;2022-11-18T06:22:33;8.00;;;6.60;;
29940;SDS011;16801;53.562;10.038;2022-11-18T06:25:54;11.90;;;7.13;;
29940;SDS011;16801;53.562;10.038;2022-11-18T06:29:17;9.50;;;6.67;;
29940;SDS011;16801;53.562;10.038;2022-11-18T06:32:40;9.10;;;6.80;;
29940;SDS011;16801;53.562;10.038;2022-11-18T06:36:02;9.03;;;6.73;;
29940;SDS011;16801;53.562;10.038;2022-11-18T06:39:23;9.87;;;6.40;;
29940;SDS011;16801;53.562;10.038;2022-11-18T06:42:44;10.27;;;8.90;;
29940;SDS011;16801;53.562;10.038;2022-11-18T06:46:24;13.63;;;9.07;;
29940;SDS011;16801;53.562;10.038;2022-11-18T06:50:03;12.67;;;9.47;;
29940;SDS011;16801;53.562;10.038;2022-11-18T06:53:24;11.83;;;10.60;;
29940;SDS011;16801;53.562;10.038;2022-11-18T06:56:45;12.10;;;7.73;;
29940;SDS011;16801;53.562;10.038;2022-11-18T07:00:07;10.13;;;7.97;;
29940;SDS011;16801;53.562;10.038;2022-11-18T07:03:29;11.00;;;8.77;;
29940;SDS011;16801;53.562;10.038;2022-11-18T07:06:50;10.53;;;7.63;;
29940;SDS011;16801;53.562;10.038;2022-11-18T07:10:11;10.83;;;8.20;;
29940;SDS011;16801;53.562;10.038;2022-11-18T07:13:32;10.53;;;8.07;;
29940;SDS011;16801;53.562;10.038;2022-11-18T07:16:53;9.60;;;8.33;;
29940;SDS011;16801;53.562;10.038;2022-11-18T07:20:16;8.00;;;7.20;;
29940;SDS011;16801;53.562;10.038;2022-11-18T07:23:37;9.73;;;7.50;;
29940;SDS011;16801;53.562;10.038;2022-11-18T07:26:59;11.67;;;7.87;;
29940;SDS011;16801;53.562;10.038;2022-11-18T07:30:20;9.07;;;6.83;;
29940;SDS011;16801;53.562;10.038;2022-11-18T07:33:41;9.33;;;6.20;;
29940;SDS011;16801;53.562;10.038;2022-11-18T07:37:04;10.00;;;7.70;;
29940;SDS011;16801;53.562;10.038;2022-11-18T07:40:25;9.67;;;7.40;;
29940;SDS011;16801;53.562;10.038;2022-11-18T07:43:49;10.17;;;7.67;;
29940;SDS011;16801;53.562;10.038;2022-11-18T07:47:11;10.10;;;7.43;;
29940;SDS011;16801;53.562;10.038;2022-11-18T07:50:31;12.37;;;7.80;;
29940;SDS011;16801;53.562;10.038;2022-11-18T07:53:54;7.23;;;6.03;;
29940;SDS011;16801;53.562;10.038;2022-11-18T07:57:15;8.10;;;6.80;;
29940;SDS011;16801;53.562;10.038;2022-11-18T08:00:35;9.20;;;8.30;;
29940;SDS011;16801;53.562;10.038;2022-11-18T08:03:57;8.40;;;6.93;;
29940;SDS011;16801;53.562;10.038;2022-11-18T08:07:24;7.97;;;6.87;;
29940;SDS011;16801;53.562;10.038;2022-11-18T08:10:49;6.93;;;6.33;;
29940;SDS011;16801;53.562;10.038;2022-11-18T08:14:10;8.03;;;6.27;;
29940;SDS011;16801;53.562;10.038;2022-11-18T08:17:31;6.97;;;5.30;;
29940;SDS011;16801;53.562;10.038;2022-11-18T08:20:52;8.47;;;6.00;;
29940;SDS011;16801;53.562;10.038;2022-11-18T08:24:13;7.93;;;6.30;;
29940;SDS011;16801;53.562;10.038;2022-11-18T08:27:35;8.77;;;6.80;;
29940;SDS011;16801;53.562;10.038;2022-11-18T08:30:56;9.37;;;7.07;;
29940;SDS011;16801;53.562;10.038;2022-11-18T08:34:17;9.33;;;8.43;;
29940;SDS011;16801;53.562;10.038;2022-11-18T08:37:37;7.70;;;6.37;;
29940;SDS011;16801;53.562;10.038;2022-11-18T08:40:58;6.63;;;5.30;;
29940;SDS011;16801;53.562;10.038;2022-11-18T08:44:21;8.73;;;6.57;;
29940;SDS011;16801;53.562;10.038;2022-11-18T08:47:42;9.20;;;6.67;;
29940;SDS011;16801;53.562;10.038;2022-11-18T08:51:03;6.87;;;5.67;;
29940;SDS011;16801;53.562;10.038;2022-11-18T08:54:24;9.23;;;6.20;;
29940;SDS011;16801;53.562;10.038;2022-11-18T08:57:45;10.10;;;6.63;;
29940;SDS011;16801;53.562;10.038;2022-11-18T09:01:07;9.60;;;6.33;;
29940;SDS011;16801;53.562;10.038;2022-11-18T09:04:28;6.30;;;5.57;;
29940;SDS011;16801;53.562;10.038;2022-11-18T09:07:49;10.57;;;6.97;;
29940;SDS011;16801;53.562;10.038;2022-11-18T09:11:11;6.90;;;5.17;;
29940;SDS011;16801;53.562;10.038;2022-11-18T09:14:33;6.67;;;5.50;;
29940;SDS011;16801;53.562;10.038;2022-11-18T09:17:56;7.67;;;4.60;;
29940;SDS011;16801;53.562;10.038;2022-11-18T09:21:17;7.20;;;5.27;;
29940;SDS011;16801;53.562;10.038;2022-11-18T09:24:38;6.10;;;5.33;;
29940;SDS011;16801;53.562;10.038;2022-11-18T09:27:59;7.97;;;6.23;;
29940;SDS011;16801;53.562;10.038;2022-11-18T09:31:20;6.83;;;5.50;;
29940;SDS011;16801;53.562;10.038;2022-11-18T09:34:42;4.87;;;4.47;;
29940;SDS011;16801;53.562;10.038;2022-11-18T09:38:02;8.53;;;5.70;;
29940;SDS011;16801;53.562;10.038;2022-11-18T09:41:36;8.33;;;6.33;;
29940;SDS011;16801;53.562;10.038;2022-11-18T09:45:10;9.10;;;5.93;;
29940;SDS011;16801;53.562;10.038;2022-11-18T09:48:39;7.63;;;5.97;;
29940;SDS011;16801;53.562;10.038;2022-11-18T09:52:19;5.37;;;4.83;;
29940;SDS011;16801;53.562;10.038;2022-11-18T09:55:43;7.87;;;5.40;;
29940;SDS011;16801;53.562;10.038;2022-11-18T09:59:04;6.90;;;5.30;;
29940;SDS011;16801;53.562;10.038;2022-11-18T10:02:27;6.43;;;5.23;;
29940;SDS011;16801;53.562;10.038;2022-11-18T10:05:56;5.50;;;3.97;;
29940;SDS011;16801;53.562;10.038;2022-11-18T10:09:26;5.53;;;4.30;;
29940;SDS011;16801;53.562;10.038;2022-11-18T10:12:54;6.50;;;5.20;;
29940;SDS011;16801;53.562;10.038;2022-11-18T10:16:21;12.70;;;7.93;;
29940;SDS011;16801;53.562;10.038;2022-11-18T10:19:52;8.77;;;6.63;;
29940;SDS011;16801;53.562;10.038;2022-11-18T10:23:17;5.03;;;4.53;;
29940;SDS011;16801;53.562;10.038;2022-11-18T10:26:43;8.17;;;5.97;;
29940;SDS011;16801;53.562;10.038;2022-11-18T10:30:06;5.83;;;4.90;;
29940;SDS011;16801;53.562;10.038;2022-11-18T10:33:32;7.20;;;5.23;;
29940;SDS011;16801;53.562;10.038;2022-11-18T10:36:57;6.47;;;4.93;;
29940;SDS011;16801;53.562;10.038;2022-11-18T10:40:25;8.10;;;5.83;;
29940;SDS011;16801;53.562;10.038;2022-11-18T10:43:49;6.17;;;5.37;;
29940;SDS011;16801;53.562;10.038;2022-11-18T10:47:21;4.87;;;4.13;;
29940;SDS011;16801;53.562;10.038;2022-11-18T10:50:45;5.73;;;4.20;;
29940;SDS011;16801;53.562;10.038;2022-11-18T10:54:10;5.77;;;3.97;;
29940;SDS011;16801;53.562;10.038;2022-11-18T10:57:35;4.97;;;4.30;;
29940;SDS011;16801;53.562;10.038;2022-11-18T11:01:06;4.53;;;4.10;;
29940;SDS011;16801;53.562;10.038;2022-11-18T11:04:33;5.27;;;3.67;;
29940;SDS011;16801;53.562;10.038;2022-11-18T11:08:00;5.43;;;4.07;;
29940;SDS011;16801;53.562;10.038;2022-11-18T11:11:24;14.30;;;4.53;;
29940;SDS011;16801;53.562;10.038;2022-11-18T11:14:48;3.57;;;3.13;;
29940;SDS011;16801;53.562;10.038;2022-11-18T11:18:15;6.10;;;4.83;;
29940;SDS011;16801;53.562;10.038;2022-11-18T11:21:58;4.80;;;3.17;;
29940;SDS011;16801;53.562;10.038;2022-11-18T11:25:20;5.43;;;3.83;;
29940;SDS011;16801;53.562;10.038;2022-11-18T11:28:48;4.10;;;3.07;;
29940;SDS011;16801;53.562;10.038;2022-11-18T11:32:18;4.37;;;3.80;;
29940;SDS011;16801;53.562;10.038;2022-11-18T11:36:00;5.63;;;4.17;;
29940;SDS011;16801;53.562;10.038;2022-11-18T11:39:36;6.00;;;3.00;;
29940;SDS011;16801;53.562;10.038;2022-11-18T11:43:19;7.83;;;3.90;;
29940;SDS011;16801;53.562;10.038;2022-11-18T11:46:48;6.57;;;3.97;;
29940;SDS011;16801;53.562;10.038;2022-11-18T11:50:35;5.47;;;3.70;;
29940;SDS011;16801;53.562;10.038;2022-11-18T11:54:23;4.67;;;3.60;;
29940;SDS011;16801;53.562;10.038;2022-11-18T12:01:41;8.53;;;6.07;;
29940;SDS011;16801;53.562;10.038;2022-11-18T12:05:16;4.50;;;4.03;;
29940;SDS011;16801;53.562;10.038;2022-11-18T12:08:47;6.07;;;4.23;;
29940;SDS011;16801;53.562;10.038;2022-11-18T12:12:17;3.83;;;3.33;;
29940;SDS011;16801;53.562;10.038;2022-11-18T12:15:59;4.90;;;4.23;;
29940;SDS011;16801;53.562;10.038;2022-11-18T12:19:26;5.50;;;4.60;;
29940;SDS011;16801;53.562;10.038;2022-11-18T12:23:09;8.90;;;4.27;;
29940;SDS011;16801;53.562;10.038;2022-11-18T12:26:41;6.57;;;3.83;;
29940;SDS011;16801;53.562;10.038;2022-11-18T12:30:16;4.40;;;3.27;;
29940;SDS011;16801;53.562;10.038;2022-11-18T12:33:40;3.87;;;3.37;;
29940;SDS011;16801;53.562;10.038;2022-11-18T12:45:47;4.23;;;3.00;;
29940;SDS011;16801;53.562;10.038;2022-11-18T12:53:10;5.27;;;2.93;;
29940;SDS011;16801;53.562;10.038;2022-11-18T12:56:52;4.57;;;2.83;;
29940;SDS011;16801;53.562;10.038;2022-11-18T13:00:14;2.80;;;2.33;;
29940;SDS011;16801;53.562;10.038;2022-11-18T13:03:38;4.47;;;3.40;;
29940;SDS011;16801;53.562;10.038;2022-11-18T13:06:59;4.17;;;2.97;;
29940;SDS011;16801;53.562;10.038;2022-11-18T13:10:22;4.43;;;4.03;;
29940;SDS011;16801;53.562;10.038;2022-11-18T13:13:48;6.63;;;3.37;;
29940;SDS011;16801;53.562;10.038;2022-11-18T13:17:33;4.90;;;4.50;;
29940;SDS011;16801;53.562;10.038;2022-11-18T13:21:15;3.37;;;3.07;;
29940;SDS011;16801;53.562;10.038;2022-11-18T13:24:57;2.70;;;2.40;;
29940;SDS011;16801;53.562;10.038;2022-11-18T13:28:21;2.90;;;2.60;;
29940;SDS011;16801;53.562;10.038;2022-11-18T13:31:52;2.47;;;2.27;;
29940;SDS011;16801;53.562;10.038;2022-11-18T13:35:21;8.63;;;2.13;;
29940;SDS011;16801;53.562;10.038;2022-11-18T13:38:56;3.53;;;2.13;;
29940;SDS011;16801;53.562;10.038;2022-11-18T13:42:18;2.63;;;2.20;;
29940;SDS011;16801;53.562;10.038;2022-11-18T13:45:40;3.67;;;1.70;;
29940;SDS011;16801;53.562;10.038;2022-11-18T13:49:02;3.10;;;2.37;;
29940;SDS011;16801;53.562;10.038;2022-11-18T13:52:25;1.50;;;1.40;;
29940;SDS011;16801;53.562;10.038;2022-11-18T13:55:51;1.13;;;1.13;;
29940;SDS011;16801;53.562;10.038;2022-11-18T13:59:17;4.07;;;2.33;;
29940;SDS011;16801;53.562;10.038;2022-11-18T14:02:40;6.43;;;4.87;;
29940;SDS011;16801;53.562;10.038;2022-11-18T14:06:04;2.63;;;2.43;;
29940;SDS011;16801;53.562;10.038;2022-11-18T14:09:26;2.83;;;2.37;;
29940;SDS011;16801;53.562;10.038;2022-11-18T14:12:57;1.67;;;1.57;;
29940;SDS011;16801;53.562;10.038;2022-11-18T14:16:29;1.60;;;1.50;;
29940;SDS011;16801;53.562;10.038;2022-11-18T14:19:53;2.30;;;2.10;;
29940;SDS011;16801;53.562;10.038;2022-11-18T14:23:15;9.13;;;7.07;;
29940;SDS011;16801;53.562;10.038;2022-11-18T14:26:37;12.60;;;8.57;;
29940;SDS011;16801;53.562;10.038;2022-11-18T14:30:00;11.37;;;8.57;;
29940;SDS011;16801;53.562;10.038;2022-11-18T14:33:21;14.40;;;9.40;;
29940;SDS011;16801;53.562;10.038;2022-11-18T14:36:43;14.27;;;8.97;;
29940;SDS011;16801;53.562;10.038;2022-11-18T14:40:11;13.00;;;8.80;;
29940;SDS011;16801;53.562;10.038;2022-11-18T14:43:33;13.73;;;7.13;;
29940;SDS011;16801;53.562;10.038;2022-11-18T14:46:56;10.63;;;6.27;;
29940;SDS011;16801;53.562;10.038;2022-11-18T14:50:18;8.83;;;7.30;;
29940;SDS011;16801;53.562;10.038;2022-11-18T14:53:40;11.93;;;7.77;;
29940;SDS011;16801;53.562;10.038;2022-11-18T14:57:02;12.77;;;9.77;;
29940;SDS011;16801;53.562;10.038;2022-11-18T15:00:24;29.33;;;16.67;;
29940;SDS011;16801;53.562;10.038;2022-11-18T15:03:46;11.13;;;8.97;;
29940;SDS011;16801;53.562;10.038;2022-11-18T15:07:08;10.50;;;7.50;;
29940;SDS011;16801;53.562;10.038;2022-11-18T15:10:31;11.63;;;7.00;;
29940;SDS011;16801;53.562;10.038;2022-11-18T15:13:52;13.40;;;7.97;;
29940;SDS011;16801;53.562;10.038;2022-11-18T15:17:13;6.00;;;3.97;;
29940;SDS011;16801;53.562;10.038;2022-11-18T15:20:39;9.93;;;4.90;;
29940;SDS011;16801;53.562;10.038;2022-11-18T15:23:59;12.23;;;9.17;;
29940;SDS011;16801;53.562;10.038;2022-11-18T15:27:20;7.53;;;5.73;;
29940;SDS011;16801;53.562;10.038;2022-11-18T15:30:41;3.70;;;3.40;;
29940;SDS011;16801;53.562;10.038;2022-11-18T15:34:02;6.87;;;5.90;;
29940;SDS011;16801;53.562;10.038;2022-11-18T15:37:24;20.93;;;10.20;;
29940;SDS011;16801;53.562;10.038;2022-11-18T15:40:45;34.07;;;23.43;;
29940;SDS011;16801;53.562;10.038;2022-11-18T15:44:06;40.17;;;27.57;;
29940;SDS011;16801;53.562;10.038;2022-11-18T15:47:29;17.70;;;13.43;;
29940;SDS011;16801;53.562;10.038;2022-11-18T15:50:50;20.03;;;11.70;;
29940;SDS011;16801;53.562;10.038;2022-11-18T15:54:12;43.07;;;24.07;;
29940;SDS011;16801;53.562;10.038;2022-11-18T15:57:32;39.13;;;23.87;;
29940;SDS011;16801;53.562;10.038;2022-11-18T16:00:53;22.17;;;16.67;;
29940;SDS011;16801;53.562;10.038;2022-11-18T16:04:15;6.77;;;6.17;;
29940;SDS011;16801;53.562;10.038;2022-11-18T16:07:37;3.27;;;2.53;;
29940;SDS011;16801;53.562;10.038;2022-11-18T16:10:59;21.23;;;11.40;;
29940;SDS011;16801;53.562;10.038;2022-11-18T16:14:52;39.87;;;24.23;;
29940;SDS011;16801;53.562;10.038;2022-11-18T16:18:35;21.70;;;16.13;;
29940;SDS011;16801;53.562;10.038;2022-11-18T16:21:56;49.73;;;29.30;;
29940;SDS011;16801;53.562;10.038;2022-11-18T16:25:17;46.17;;;28.60;;
29940;SDS011;16801;53.562;10.038;2022-11-18T16:28:43;51.13;;;29.87;;
29940;SDS011;16801;53.562;10.038;2022-11-18T16:32:04;28.23;;;16.47;;
29940;SDS011;16801;53.562;10.038;2022-11-18T16:35:32;9.33;;;6.37;;
29940;SDS011;16801;53.562;10.038;2022-11-18T16:38:53;4.57;;;3.33;;
29940;SDS011;16801;53.562;10.038;2022-11-18T16:42:14;4.17;;;3.77;;
29940;SDS011;16801;53.562;10.038;2022-11-18T16:45:36;2.53;;;2.43;;
29940;SDS011;16801;53.562;10.038;2022-11-18T16:48:57;8.33;;;3.70;;
29940;SDS011;16801;53.562;10.038;2022-11-18T16:52:19;7.67;;;5.00;;
29940;SDS011;16801;53.562;10.038;2022-11-18T16:55:40;14.23;;;8.70;;
29940;SDS011;16801;53.562;10.038;2022-11-18T16:59:02;29.30;;;15.90;;
29940;SDS011;16801;53.562;10.038;2022-11-18T17:02:25;38.07;;;21.23;;
29940;SDS011;16801;53.562;10.038;2022-11-18T17:05:46;23.47;;;13.13;;
29940;SDS011;16801;53.562;10.038;2022-11-18T17:09:08;20.83;;;10.23;;
29940;SDS011;16801;53.562;10.038;2022-11-18T17:12:35;11.90;;;5.83;;
29940;SDS011;16801;53.562;10.038;2022-11-18T17:16:04;13.70;;;6.37;;
29940;SDS011;16801;53.562;10.038;2022-11-18T17:19:29;7.63;;;5.47;;
29940;SDS011;16801;53.562;10.038;2022-11-18T17:22:50;18.07;;;9.40;;
29940;SDS011;16801;53.562;10.038;2022-11-18T17:26:20;14.43;;;7.93;;
29940;SDS011;16801;53.562;10.038;2022-11-18T17:29:42;12.90;;;6.83;;
29940;SDS011;16801;53.562;10.038;2022-11-18T17:33:03;7.63;;;5.53;;
29940;SDS011;16801;53.562;10.038;2022-11-18T17:36:28;7.57;;;5.97;;
29940;SDS011;16801;53.562;10.038;2022-11-18T17:39:48;7.03;;;5.10;;
29940;SDS011;16801;53.562;10.038;2022-11-18T17:43:09;2.73;;;2.50;;
29940;SDS011;16801;53.562;10.038;2022-11-18T17:46:34;5.47;;;2.70;;
29940;SDS011;16801;53.562;10.038;2022-11-18T17:49:56;4.03;;;2.33;;
29940;SDS011;16801;53.562;10.038;2022-11-18T17:53:19;3.60;;;2.43;;
29940;SDS011;16801;53.562;10.038;2022-11-18T17:56:41;3.73;;;2.63;;
29940;SDS011;16801;53.562;10.038;2022-11-18T18:00:03;4.10;;;3.10;;
29940;SDS011;16801;53.562;10.038;2022-11-18T18:03:27;15.67;;;9.27;;
29940;SDS011;16801;53.562;10.038;2022-11-18T18:06:49;30.17;;;17.53;;
29940;SDS011;16801;53.562;10.038;2022-11-18T18:10:12;24.53;;;15.80;;
29940;SDS011;16801;53.562;10.038;2022-11-18T18:13:35;15.07;;;10.50;;
29940;SDS011;16801;53.562;10.038;2022-11-18T18:17:13;19.63;;;12.57;;
29940;SDS011;16801;53.562;10.038;2022-11-18T18:20:35;27.23;;;15.23;;
29940;SDS011;16801;53.562;10.038;2022-11-18T18:23:57;15.93;;;8.13;;
29940;SDS011;16801;53.562;10.038;2022-11-18T18:27:19;6.33;;;5.70;;
29940;SDS011;16801;53.562;10.038;2022-11-18T18:30:40;6.17;;;3.80;;
29940;SDS011;16801;53.562;10.038;2022-11-18T18:34:02;2.60;;;2.40;;
29940;SDS011;16801;53.562;10.038;2022-11-18T18:37:26;4.63;;;3.33;;
29940;SDS011;16801;53.562;10.038;2022-11-18T18:40:47;8.27;;;5.13;;
29940;SDS011;16801;53.562;10.038;2022-11-18T18:44:09;17.50;;;12.13;;
29940;SDS011;16801;53.562;10.038;2022-11-18T18:47:31;33.23;;;18.17;;
29940;SDS011;16801;53.562;10.038;2022-11-18T18:51:01;22.33;;;11.70;;
29940;SDS011;16801;53.562;10.038;2022-11-18T18:54:22;21.03;;;10.93;;
29940;SDS011;16801;53.562;10.038;2022-11-18T18:57:43;25.17;;;13.53;;
29940;SDS011;16801;53.562;10.038;2022-11-18T19:01:06;13.70;;;8.97;;
29940;SDS011;16801;53.562;10.038;2022-11-18T19:04:28;32.50;;;19.60;;
29940;SDS011;16801;53.562;10.038;2022-11-18T19:07:49;26.43;;;15.50;;
29940;SDS011;16801;53.562;10.038;2022-11-18T19:11:10;19.83;;;10.80;;
29940;SDS011;16801;53.562;10.038;2022-11-18T19:14:51;12.17;;;8.13;;
29940;SDS011;16801;53.562;10.038;2022-11-18T19:18:14;9.70;;;6.90;;
29940;SDS011;16801;53.562;10.038;2022-11-18T19:21:36;12.60;;;8.93;;
29940;SDS011;16801;53.562;10.038;2022-11-18T19:24:57;7.10;;;6.40;;
29940;SDS011;16801;53.562;10.038;2022-11-18T19:28:20;5.73;;;3.53;;
29940;SDS011;16801;53.562;10.038;2022-11-18T19:31:41;5.77;;;2.60;;
29940;SDS011;16801;53.562;10.038;2022-11-18T19:35:04;3.00;;;2.80;;
29940;SDS011;16801;53.562;10.038;2022-11-18T19:38:26;2.87;;;2.67;;
29940;SDS011;16801;53.562;10.038;2022-11-18T19:41:47;9.80;;;3.07;;
29940;SDS011;16801;53.562;10.038;2022-11-18T19:45:08;4.23;;;3.47;;
29940;SDS011;16801;53.562;10.038;2022-11-18T19:48:30;2.00;;;1.80;;
29940;SDS011;16801;53.562;10.038;2022-11-18T19:51:53;2.03;;;1.90;;
29940;SDS011;16801;53.562;10.038;2022-11-18T19:55:14;2.20;;;1.97;;
29940;SDS011;16801;53.562;10.038;2022-11-18T19:58:35;2.83;;;1.93;;
29940;SDS011;16801;53.562;10.038;2022-11-18T20:01:58;4.10;;;2.97;;
29940;SDS011;16801;53.562;10.038;2022-11-18T20:05:19;3.80;;;2.57;;
29940;SDS011;16801;53.562;10.038;2022-11-18T20:08:59;3.80;;;2.63;;
29940;SDS011;16801;53.562;10.038;2022-11-18T20:12:20;2.20;;;2.00;;
29940;SDS011;16801;53.562;10.038;2022-11-18T20:15:40;4.00;;;2.00;;
29940;SDS011;16801;53.562;10.038;2022-11-18T20:19:02;3.33;;;2.87;;
29940;SDS011;16801;53.562;10.038;2022-11-18T20:22:26;2.97;;;1.97;;
29940;SDS011;16801;53.562;10.038;2022-11-18T20:25:48;3.10;;;2.40;;